Time;durP1;ratioP1;P1;durP2;ratioP2;P2;SDS_P1;SDS_P2;PMS_P1;PMS_P2;Temp;Humidity;BMP_temperature;BMP_pressure;BME280_temperature;BME280_humidity;BME280_pressure;Samples;Min_cycle;Max_cycle;Signal;HPM_P1;HPM_P2
2022/12/06 00:05:00;;;;;;;5.82;5.15;;;;;;;6.31;86.03;100400.22;10306669;28;20154;-63
2022/12/06 00:10:01;;;;;;;4.50;4.10;;;;;;;6.39;85.04;100396.28;10310280;28;20147;-63
2022/12/06 00:15:03;;;;;;;4.50;4.03;;;;;;;6.41;83.34;100395.25;10306635;28;20181;-62
2022/12/06 00:20:05;;;;;;;4.30;3.90;;;;;;;6.29;83.41;100383.63;10301814;28;20073;-62
2022/12/06 00:25:07;;;;;;;4.47;3.58;;;;;;;6.19;83.49;100369.25;10303896;28;20072;-63
2022/12/06 00:30:08;;;;;;;3.97;3.58;;;;;;;6.20;82.44;100368.31;10304073;28;20489;-63
2022/12/06 00:35:10;;;;;;;4.32;3.22;;;;;;;6.26;82.22;100378.53;10308468;28;20098;-61
2022/12/06 00:40:11;;;;;;;3.75;3.28;;;;;;;6.27;82.23;100376.72;10302044;28;20065;-61
2022/12/06 00:45:12;;;;;;;4.18;2.90;;;;;;;6.11;81.52;100339.78;10311558;28;20050;-62
2022/12/06 00:50:14;;;;;;;3.60;3.17;;;;;;;6.28;81.45;100366.03;10303567;28;20046;-61
2022/12/06 00:55:15;;;;;;;3.35;2.78;;;;;;;6.37;82.23;100375.22;10307049;28;20042;-62
2022/12/06 01:00:17;;;;;;;3.65;2.70;;;;;;;6.36;80.72;100365.56;10314176;28;20072;-61
2022/12/06 01:05:18;;;;;;;4.53;3.25;;;;;;;6.40;81.23;100367.09;10314096;28;20164;-62
2022/12/06 01:10:20;;;;;;;3.30;2.70;;;;;;;6.10;81.34;100372.47;10313520;28;20046;-61
2022/12/06 01:15:21;;;;;;;3.10;2.58;;;;;;;6.10;80.59;100370.66;10316262;28;22275;-60
2022/12/06 01:20:23;;;;;;;3.55;2.67;;;;;;;5.94;79.58;100377.75;10311654;28;20065;-62
2022/12/06 01:25:24;;;;;;;2.60;2.40;;;;;;;5.78;79.71;100385.72;10307728;28;20148;-62
2022/12/06 01:30:28;;;;;;;2.55;2.35;;;;;;;5.95;78.44;100384.75;10313788;28;20264;-63
2022/12/06 01:35:29;;;;;;;2.25;2.10;;;;;;;5.89;78.44;100388.59;10310044;28;20188;-59
2022/12/06 01:40:37;;;;;;;2.75;2.17;;;;;;;5.90;77.54;100395.59;10317752;28;20450;-61
2022/12/06 01:45:38;;;;;;;2.45;2.25;;;;;;;5.83;78.08;100388.97;10307551;28;20053;-61
2022/12/06 01:50:41;;;;;;;2.92;2.25;;;;;;;5.76;77.90;100382.34;10308949;28;20064;-61
2022/12/06 01:55:43;;;;;;;2.88;2.15;;;;;;;5.78;77.11;100380.44;10309160;28;20432;-61
2022/12/06 02:00:44;;;;;;;3.15;2.75;;;;;;;5.91;77.81;100370.84;10306065;28;20064;-62
2022/12/06 02:05:47;;;;;;;2.45;2.22;;;;;;;5.65;77.10;100357.38;10310326;28;20046;-61
2022/12/06 02:10:48;;;;;;;3.03;2.50;;;;;;;5.74;77.76;100368.38;10309503;28;20046;-62
2022/12/06 02:16:04;;;;;;;2.42;2.22;;;;;;;5.70;77.22;100346.56;10311172;28;20046;-61
2022/12/06 02:21:15;;;;;;;3.20;2.90;;;;;;;5.76;77.22;100361.19;10313238;28;20358;-59
2022/12/06 02:26:25;;;;;;;3.30;2.72;;;;;;;5.71;76.93;100352.72;10310481;28;20048;-60
2022/12/06 02:31:38;;;;;;;3.40;3.10;;;;;;;5.55;77.17;100340.38;10306405;28;20045;-63
2022/12/06 02:37:07;;;;;;;3.05;2.75;;;;;;;5.71;77.14;100353.56;10305373;28;20049;-62
2022/12/06 02:42:16;;;;;;;4.10;3.70;;;;;;;5.62;77.90;100344.38;10310050;28;20125;-63
2022/12/06 02:47:21;;;;;;;3.85;3.45;;;;;;;5.68;78.07;100348.44;10305973;28;20068;-62
2022/12/06 02:52:26;;;;;;;4.05;3.65;;;;;;;5.57;78.11;100341.16;10304368;28;20057;-64
2022/12/06 02:57:40;;;;;;;4.60;3.65;;;;;;;5.61;79.18;100347.94;10307300;28;20053;-62
2022/12/06 03:02:41;;;;;;;4.78;3.55;;;;;;;5.48;79.02;100331.13;10309881;28;20048;-61
2022/12/06 03:07:45;;;;;;;4.25;3.85;;;;;;;5.52;78.92;100343.19;10307350;28;20057;-63
2022/12/06 03:13:07;;;;;;;4.30;3.45;;;;;;;5.54;78.90;100349.25;10308479;28;20042;-61
2022/12/06 03:18:22;;;;;;;4.18;3.78;;;;;;;5.51;78.12;100345.94;10308704;28;20671;-63
2022/12/06 03:23:33;;;;;;;4.22;3.50;;;;;;;5.52;78.58;100353.75;10306619;28;20553;-62
2022/12/06 03:28:37;;;;;;;4.22;3.40;;;;;;;5.28;79.46;100346.34;10305644;28;20709;-62
2022/12/06 03:33:44;;;;;;;4.13;3.72;;;;;;;5.28;78.46;100346.34;10303132;28;20042;-62
2022/12/06 03:38:51;;;;;;;4.22;3.83;;;;;;;5.31;79.25;100327.69;10308262;28;20045;-62
2022/12/06 03:43:53;;;;;;;4.25;3.78;;;;;;;5.57;78.52;100335.88;10308734;28;20050;-60
2022/12/06 03:49:08;;;;;;;4.28;3.40;;;;;;;5.59;77.69;100335.78;10313833;28;20082;-62
2022/12/06 03:54:10;;;;;;;;;;;;;;;5.20;78.13;100337.16;10302199;28;20054;-61
2022/12/06 03:59:12;;;;;;;4.05;3.47;;;;;;;5.41;77.30;100327.16;10306547;28;19931;-62
2022/12/06 04:04:13;;;;;;;4.95;3.92;;;;;;;5.51;77.67;100323.03;10309912;28;20058;-61
2022/12/06 04:14:38;;;;;;;4.07;3.60;;;;;;;5.38;76.91;100322.03;10301206;28;20056;-62
2022/12/06 04:19:39;;;;;;;4.60;4.17;;;;;;;5.35;76.69;100309.03;10304670;28;20420;-60
2022/12/06 04:24:40;;;;;;;4.25;3.85;;;;;;;5.36;76.22;100308.06;10305170;28;20204;-62
2022/12/06 04:40:22;;;;;;;4.10;3.70;;;;;;;5.31;75.79;100296.00;10315285;28;20363;-62
2022/12/06 04:45:23;;;;;;;4.20;3.80;;;;;;;5.47;76.13;100303.03;10315070;28;20408;-62
2022/12/06 04:50:25;;;;;;;4.38;3.90;;;;;;;5.43;75.51;100302.34;10313954;28;20479;-61
2022/12/06 04:55:26;;;;;;;4.55;4.15;;;;;;;5.29;75.41;100300.50;10314785;28;20457;-62
2022/12/06 05:00:28;;;;;;;4.85;4.35;;;;;;;5.20;75.39;100295.75;10312905;28;20508;-61
2022/12/06 05:05:29;;;;;;;4.70;4.30;;;;;;;5.24;75.83;100289.38;10304154;28;20140;-63
2022/12/06 05:10:31;;;;;;;4.60;4.20;;;;;;;5.32;75.86;100299.47;10310380;28;20050;-62
2022/12/06 05:15:33;;;;;;;4.35;3.95;;;;;;;5.37;75.76;100297.41;10316668;28;20428;-63
2022/12/06 05:20:35;;;;;;;4.38;3.97;;;;;;;5.34;75.85;100289.69;10313434;28;20065;-62
2022/12/06 05:25:37;;;;;;;5.00;4.50;;;;;;;5.39;75.85;100305.25;10318308;28;20445;-62
2022/12/06 05:30:39;;;;;;;4.78;4.32;;;;;;;5.44;75.32;100311.97;10309170;28;20050;-63
2022/12/06 05:35:40;;;;;;;4.45;4.05;;;;;;;5.41;75.21;100314.78;10315056;28;20527;-61
2022/12/06 05:40:43;;;;;;;4.40;3.97;;;;;;;5.49;76.17;100316.97;10308853;28;20072;-61
2022/12/06 05:45:44;;;;;;;4.25;3.85;;;;;;;5.56;75.37;100315.69;10302154;28;20054;-64
2022/12/06 05:50:47;;;;;;;6.05;4.70;;;;;;;5.53;75.00;100309.75;10307110;28;20058;-60
2022/12/06 05:55:49;;;;;;;4.10;3.70;;;;;;;5.55;75.15;100310.50;10305972;28;20208;-60
2022/12/06 06:00:50;;;;;;;5.00;4.50;;;;;;;5.55;74.98;100306.06;10305814;28;20137;-59
2022/12/06 06:05:56;;;;;;;4.45;4.05;;;;;;;5.64;75.61;100299.38;10305891;28;20054;-61
2022/12/06 06:10:58;;;;;;;3.88;3.58;;;;;;;5.59;75.15;100297.00;10301782;28;20116;-62
2022/12/06 06:16:00;;;;;;;4.18;3.78;;;;;;;5.60;75.29;100284.66;10305666;28;21297;-60
2022/12/06 06:21:02;;;;;;;4.50;4.07;;;;;;;5.72;74.51;100293.63;10305482;28;20475;-64
2022/12/06 06:26:08;;;;;;;3.95;3.45;;;;;;;5.68;75.17;100289.50;10301033;28;20054;-60
2022/12/06 06:31:09;;;;;;;4.10;3.58;;;;;;;5.75;74.74;100296.97;10302656;28;20179;-62
2022/12/06 06:36:11;;;;;;;3.92;3.53;;;;;;;5.70;74.46;100299.00;10307723;28;20053;-62
2022/12/06 06:41:12;;;;;;;3.95;3.55;;;;;;;5.68;73.69;100308.00;10302358;28;20058;-61
2022/12/06 06:46:13;;;;;;;4.72;4.22;;;;;;;5.63;74.33;100311.75;10306498;28;20053;-59
2022/12/06 06:51:15;;;;;;;5.90;3.85;;;;;;;5.64;74.81;100310.81;10305674;28;20325;-60
2022/12/06 06:56:19;;;;;;;4.00;3.60;;;;;;;5.64;74.14;100309.94;10306171;28;20489;-59
2022/12/06 07:01:22;;;;;;;3.80;3.50;;;;;;;5.49;74.72;100312.56;10304614;28;20058;-60
2022/12/06 07:06:24;;;;;;;3.58;3.28;;;;;;;5.54;75.44;100322.84;10304893;28;20520;-61
2022/12/06 07:11:25;;;;;;;4.70;3.72;;;;;;;5.60;75.13;100319.84;10307373;28;20050;-62
2022/12/06 07:16:27;;;;;;;4.10;3.70;;;;;;;5.53;75.50;100329.06;10305418;28;20051;-61
2022/12/06 07:21:28;;;;;;;3.60;3.30;;;;;;;5.62;74.63;100325.88;10301377;28;20078;-60
2022/12/06 07:26:30;;;;;;;4.28;3.88;;;;;;;5.68;75.00;100323.84;10299949;28;20081;-59
2022/12/06 07:31:32;;;;;;;3.97;3.50;;;;;;;5.60;75.37;100326.91;10303700;28;20474;-60
2022/12/06 07:36:34;;;;;;;4.00;3.60;;;;;;;5.69;74.75;100330.81;10304151;28;20064;-60
2022/12/06 07:46:56;;;;;;;4.25;3.72;;;;;;;5.59;74.78;100327.88;10300120;28;20050;-59
2022/12/06 07:51:57;;;;;;;5.05;3.75;;;;;;;5.68;74.98;100331.75;10303178;28;20046;-60
2022/12/06 07:56:59;;;;;;;3.72;3.05;;;;;;;5.72;73.97;100335.91;10304972;28;20053;-59
2022/12/06 08:02:00;;;;;;;6.75;3.38;;;;;;;5.59;75.43;100333.16;10306409;28;20046;-61
2022/12/06 08:07:02;;;;;;;5.50;3.63;;;;;;;5.69;75.06;100333.44;10311870;28;20191;-60
2022/12/06 08:12:03;;;;;;;4.38;3.40;;;;;;;5.59;74.69;100312.84;10313121;28;20133;-59
2022/12/06 08:17:05;;;;;;;3.97;3.58;;;;;;;5.70;75.27;100325.44;10308028;28;20543;-60
2022/12/06 08:22:06;;;;;;;3.10;2.90;;;;;;;5.67;75.60;100333.53;10308125;28;20050;-60
2022/12/06 08:27:08;;;;;;;2.85;2.58;;;;;;;5.70;75.07;100330.72;10307690;28;20053;-59
2022/12/06 08:32:09;;;;;;;3.20;2.90;;;;;;;5.78;74.60;100331.13;10310927;28;20438;-61
2022/12/06 08:37:11;;;;;;;4.53;3.05;;;;;;;5.89;74.53;100329.63;10311289;28;20046;-60
2022/12/06 08:42:12;;;;;;;3.33;2.90;;;;;;;5.75;74.47;100338.34;10295583;28;20061;-60
2022/12/06 08:47:14;;;;;;;3.67;3.38;;;;;;;5.85;75.00;100339.53;10303907;28;20052;-61
2022/12/06 08:52:16;;;;;;;3.38;3.08;;;;;;;6.00;73.90;100329.84;10308977;28;20105;-61
2022/12/06 08:57:17;;;;;;;3.40;2.60;;;;;;;6.02;73.32;100333.28;10310054;28;20287;-61
2022/12/06 09:02:18;;;;;;;3.28;2.83;;;;;;;6.09;73.14;100334.59;10305122;28;20050;-61
2022/12/06 09:07:21;;;;;;;2.60;2.40;;;;;;;5.99;72.08;100336.94;10302310;28;20543;-61
2022/12/06 09:12:24;;;;;;;4.05;2.42;;;;;;;5.93;72.41;100342.56;10305078;28;20282;-61
2022/12/06 09:17:25;;;;;;;2.72;2.53;;;;;;;6.02;72.38;100346.50;10302878;28;20050;-60
2022/12/06 09:22:26;;;;;;;3.45;3.05;;;;;;;5.98;72.73;100350.25;10307233;28;20045;-59
2022/12/06 09:27:29;;;;;;;3.55;2.80;;;;;;;5.72;72.70;100307.72;10304863;28;20053;-61
2022/12/06 09:32:30;;;;;;;3.20;2.90;;;;;;;5.96;72.28;100339.75;10312333;28;20586;-60
2022/12/06 09:37:32;;;;;;;3.33;2.97;;;;;;;6.03;72.51;100349.97;10306614;28;20061;-61
2022/12/06 09:43:01;;;;;;;3.33;3.00;;;;;;;6.07;72.46;100346.22;10297947;28;20056;-60
2022/12/06 09:48:25;;;;;;;3.67;3.20;;;;;;;6.01;71.35;100335.06;10292877;28;20501;-59
2022/12/06 09:53:34;;;;;;;2.78;2.47;;;;;;;6.11;70.77;100353.00;10304190;28;20050;-59
2022/12/06 09:59:06;;;;;;;2.83;2.63;;;;;;;6.14;70.87;100350.16;10309814;28;20054;-60
2022/12/06 10:04:45;;;;;;;3.35;2.58;;;;;;;6.06;70.52;100315.44;10305999;28;20049;-60
2022/12/06 10:10:17;;;;;;;3.35;3.05;;;;;;;6.28;70.52;100344.91;10304717;28;20468;-59
2022/12/06 10:15:43;;;;;;;3.42;3.13;;;;;;;6.40;69.75;100345.09;10309609;28;20644;-61
2022/12/06 10:20:53;;;;;;;2.70;2.50;;;;;;;6.40;69.29;100330.06;10320591;28;20041;-60
2022/12/06 10:26:16;;;;;;;3.67;3.38;;;;;;;6.72;68.70;100346.59;10321802;28;20153;-60
2022/12/06 10:31:33;;;;;;;2.75;2.47;;;;;;;6.82;68.23;100348.66;10317885;28;20069;-60
2022/12/06 10:36:43;;;;;;;3.50;2.78;;;;;;;6.96;67.94;100345.13;10305461;28;20103;-60
2022/12/06 10:42:05;;;;;;;2.70;2.50;;;;;;;7.03;68.20;100328.75;10307724;28;20492;-60
2022/12/06 10:47:13;;;;;;;3.47;3.17;;;;;;;7.32;67.37;100333.94;10307294;28;20045;-62
2022/12/06 10:52:42;;;;;;;3.80;2.65;;;;;;;7.22;67.13;100307.22;10323088;28;20100;-61
2022/12/06 10:58:16;;;;;;;3.13;2.83;;;;;;;7.54;66.38;100348.44;10303466;28;20045;-60
2022/12/06 11:03:36;;;;;;;2.47;2.20;;;;;;;7.53;65.41;100336.13;10316809;28;20046;-61
2022/12/06 11:08:59;;;;;;;2.30;2.10;;;;;;;7.61;66.16;100337.31;10307225;28;20523;-60
2022/12/06 11:14:24;;;;;;;3.20;2.90;;;;;;;7.63;65.77;100339.00;10301650;28;20053;-61
2022/12/06 11:19:37;;;;;;;2.72;2.53;;;;;;;7.70;65.63;100333.22;10296202;28;20480;-61
2022/12/06 11:24:49;;;;;;;4.75;2.80;;;;;;;7.58;65.99;100320.75;10303509;28;20037;-62
2022/12/06 11:29:52;;;;;;;2.42;1.80;;;;;;;7.66;66.09;100334.38;10299933;28;20496;-60
2022/12/06 11:35:00;;;;;;;4.72;2.30;;;;;;;7.23;67.16;100314.19;10317658;28;20054;-60
2022/12/06 11:40:26;;;;;;;5.07;2.70;;;;;;;7.28;68.24;100324.53;10302183;28;20795;-60
2022/12/06 11:45:41;;;;;;;2.65;2.45;;;;;;;7.24;68.06;100301.84;10299483;28;20547;-60
2022/12/06 11:50:45;;;;;;;3.15;2.85;;;;;;;7.43;67.65;100309.38;10310477;28;20057;-60
2022/12/06 11:55:51;;;;;;;3.75;2.25;;;;;;;7.61;66.58;100318.78;10302669;28;20054;-59
2022/12/06 12:01:05;;;;;;;4.32;2.58;;;;;;;7.47;66.71;100292.34;10299962;28;20104;-59
2022/12/06 12:06:25;;;;;;;2.67;2.33;;;;;;;7.44;67.59;100301.34;10297074;28;21121;-60
2022/12/06 12:11:30;;;;;;;3.00;2.40;;;;;;;7.47;67.40;100310.06;10300606;28;20061;-60
2022/12/06 12:16:35;;;;;;;2.60;2.10;;;;;;;7.40;67.08;100297.22;10303700;28;20057;-60
2022/12/06 12:21:41;;;;;;;2.53;2.05;;;;;;;7.37;68.01;100300.06;10298658;28;20424;-59
2022/12/06 12:26:42;;;;;;;2.25;1.90;;;;;;;7.41;66.49;100296.25;10301845;28;20054;-61
2022/12/06 12:31:52;;;;;;;3.40;2.40;;;;;;;7.41;67.07;100300.72;10302320;28;20076;-60
2022/12/06 12:36:59;;;;;;;2.63;2.22;;;;;;;7.44;66.34;100309.28;10300934;28;20064;-60
2022/12/06 12:42:01;;;;;;;2.42;1.88;;;;;;;7.39;66.60;100298.16;10301199;28;20054;-60
2022/12/06 12:47:18;;;;;;;8.98;2.08;;;;;;;7.58;66.83;100302.22;10297793;28;20049;-60
2022/12/06 12:52:28;;;;;;;3.92;2.10;;;;;;;7.48;66.83;100306.47;10299153;28;21236;-62
2022/12/06 12:57:30;;;;;;;2.88;2.65;;;;;;;7.43;66.52;100304.97;10320168;28;20053;-62
2022/12/06 13:02:34;;;;;;;2.25;1.90;;;;;;;7.43;66.81;100298.78;10310534;28;20498;-60
2022/12/06 13:07:40;;;;;;;2.95;1.98;;;;;;;7.36;65.98;100293.06;10309403;28;20050;-59
2022/12/06 13:12:47;;;;;;;3.88;1.63;;;;;;;7.40;66.42;100289.28;10306354;28;20666;-61
2022/12/06 13:17:55;;;;;;;2.88;1.75;;;;;;;7.40;66.79;100293.72;10306018;28;20048;-61
2022/12/06 13:23:12;;;;;;;2.03;1.83;;;;;;;7.29;67.29;100307.66;10321670;28;20838;-61
2022/12/06 13:28:27;;;;;;;2.83;2.22;;;;;;;7.28;66.77;100298.03;10305075;28;20047;-61
2022/12/06 13:33:32;;;;;;;2.23;2.03;;;;;;;7.08;66.72;100272.84;10304963;28;20525;-61
2022/12/06 13:38:38;;;;;;;2.50;1.80;;;;;;;7.15;68.12;100283.91;10305918;28;20062;-59
2022/12/06 13:43:39;;;;;;;2.15;1.88;;;;;;;7.11;67.66;100288.53;10306097;28;20045;-60
2022/12/06 13:48:52;;;;;;;2.35;1.92;;;;;;;7.16;68.13;100285.59;10302044;28;20062;-60
2022/12/06 13:54:02;;;;;;;3.42;2.55;;;;;;;7.15;67.45;100299.78;10306289;28;20653;-60
2022/12/06 13:59:24;;;;;;;3.17;2.15;;;;;;;7.16;67.57;100290.88;10300813;28;20090;-61
2022/12/06 14:04:28;;;;;;;2.15;1.70;;;;;;;7.23;67.66;100292.19;10303311;28;20053;-60
2022/12/06 14:09:42;;;;;;;2.13;1.90;;;;;;;7.19;67.15;100290.69;10308193;28;20092;-60
2022/12/06 14:14:54;;;;;;;2.83;1.90;;;;;;;6.86;67.02;100260.16;10321169;28;20551;-62
2022/12/06 14:19:55;;;;;;;3.30;3.00;;;;;;;7.14;67.26;100293.63;10304374;28;20054;-61
2022/12/06 14:25:00;;;;;;;3.70;3.40;;;;;;;7.02;68.77;100289.97;10307346;28;20061;-59
2022/12/06 14:30:02;;;;;;;;;;;;;;;7.08;68.96;100294.03;10304302;28;20061;-60
2022/12/06 14:35:12;;;;;;;3.90;2.47;;;;;;;6.78;68.26;100238.66;10302574;28;19929;-60
2022/12/06 14:40:24;;;;;;;5.75;3.28;;;;;;;7.07;68.23;100292.31;10306275;28;20049;-60
2022/12/06 14:45:46;;;;;;;3.40;3.10;;;;;;;7.11;68.67;100293.00;10306301;28;20652;-61
2022/12/06 14:50:52;;;;;;;3.55;3.17;;;;;;;7.08;68.98;100284.28;10295406;28;20068;-61
2022/12/06 14:55:55;;;;;;;3.65;3.10;;;;;;;7.07;68.79;100287.03;10302108;28;20126;-62
2022/12/06 15:01:01;;;;;;;3.92;3.53;;;;;;;7.05;68.98;100289.78;10305126;28;20587;-64
2022/12/06 15:06:19;;;;;;;4.22;3.05;;;;;;;6.90;69.09;100283.72;10302162;28;20045;-59
2022/12/06 15:16:43;;;;;;;6.18;3.47;;;;;;;6.93;70.37;100289.75;10301697;28;20062;-61
2022/12/06 15:21:49;;;;;;;4.82;3.40;;;;;;;6.84;69.74;100273.50;10300280;28;20100;-62
2022/12/06 15:26:52;;;;;;;5.80;5.30;;;;;;;7.00;69.33;100289.25;10300169;28;20054;-60
2022/12/06 15:31:54;;;;;;;5.13;3.65;;;;;;;6.92;69.42;100277.44;10287147;28;20050;-61
2022/12/06 15:36:58;;;;;;;4.03;3.63;;;;;;;6.96;70.00;100279.81;10301437;28;20625;-61
2022/12/06 15:42:22;;;;;;;5.35;3.13;;;;;;;6.93;70.28;100284.47;10308230;28;20054;-59
2022/12/06 15:47:23;;;;;;;4.85;4.35;;;;;;;7.06;70.78;100280.06;10305510;28;20676;-59
2022/12/06 15:52:26;;;;;;;4.13;3.53;;;;;;;7.08;70.48;100279.00;10300535;28;20054;-61
2022/12/06 15:57:27;;;;;;;6.07;4.38;;;;;;;7.12;69.84;100284.13;10309399;28;20057;-59
2022/12/06 16:02:28;;;;;;;4.97;4.22;;;;;;;7.04;70.05;100288.09;10307338;28;20053;-59
2022/12/06 16:07:30;;;;;;;4.13;3.65;;;;;;;6.99;70.08;100290.19;10307512;28;20062;-59
2022/12/06 16:13:20;;;;;;;4.28;3.40;;;;;;;6.97;70.04;100284.16;10303064;28;20050;-59
2022/12/06 16:17:53;;;;;;;5.40;4.63;;;;;;;6.91;69.57;100276.63;10302445;28;20057;-60
2022/12/06 16:28:18;;;;;;;6.25;5.65;;;;;;;6.79;70.06;100282.72;10289105;28;20049;-60
2022/12/06 16:33:22;;;;;;;6.97;5.70;;;;;;;6.73;70.62;100281.28;10310555;28;20168;-58
2022/12/06 16:38:24;;;;;;;6.23;5.63;;;;;;;6.60;71.08;100268.00;10305803;28;20278;-61
2022/12/06 16:43:25;;;;;;;5.88;5.10;;;;;;;6.82;70.05;100283.34;10308021;28;20054;-60
2022/12/06 16:48:27;;;;;;;5.97;5.30;;;;;;;6.79;70.36;100261.53;10306897;28;20065;-59
2022/12/06 16:53:28;;;;;;;5.22;4.72;;;;;;;6.89;69.93;100289.06;10307589;28;20160;-61
2022/12/06 16:58:30;;;;;;;5.85;4.97;;;;;;;6.89;69.51;100284.66;10309557;28;20068;-64
2022/12/06 17:03:31;;;;;;;6.25;4.90;;;;;;;6.84;69.73;100270.00;10303145;28;20144;-59
2022/12/06 17:08:32;;;;;;;6.15;5.55;;;;;;;6.79;69.82;100282.72;10307384;28;20069;-60
2022/12/06 17:13:34;;;;;;;6.80;5.10;;;;;;;6.69;70.36;100285.06;10305884;28;20530;-60
2022/12/06 17:18:35;;;;;;;8.65;5.35;;;;;;;6.62;70.47;100289.94;10307058;28;20133;-60
2022/12/06 17:23:37;;;;;;;6.75;5.57;;;;;;;6.67;70.40;100289.63;10305124;28;20459;-60
2022/12/06 17:28:38;;;;;;;5.60;4.90;;;;;;;6.55;70.93;100278.03;10309989;28;20061;-60
2022/12/06 17:33:40;;;;;;;6.07;5.00;;;;;;;6.58;70.64;100288.41;10309217;28;20555;-60
2022/12/06 17:38:41;;;;;;;6.82;5.75;;;;;;;6.64;70.58;100285.38;10307028;28;22642;-60
2022/12/06 17:43:42;;;;;;;6.88;5.60;;;;;;;6.73;70.34;100279.50;10307234;28;20050;-60
2022/12/06 17:48:43;;;;;;;6.63;5.70;;;;;;;6.77;70.51;100296.03;10307845;28;20080;-62
2022/12/06 17:53:45;;;;;;;7.65;5.93;;;;;;;6.64;70.01;100258.91;10303390;28;20102;-61
2022/12/06 17:58:46;;;;;;;7.65;6.85;;;;;;;6.90;69.70;100298.72;10304083;28;20393;-60
2022/12/06 18:03:52;;;;;;;8.77;6.50;;;;;;;6.96;69.29;100289.56;10307575;28;20058;-61
2022/12/06 18:08:55;;;;;;;5.97;5.00;;;;;;;6.84;69.12;100291.19;10305436;28;20368;-61
2022/12/06 18:13:57;;;;;;;6.93;5.90;;;;;;;6.73;70.42;100292.72;10308058;28;20125;-62
2022/12/06 18:19:01;;;;;;;6.60;5.82;;;;;;;6.49;70.90;100286.34;10305297;28;20053;-61
2022/12/06 18:24:11;;;;;;;7.13;5.82;;;;;;;6.75;70.33;100287.31;10318262;28;20054;-61
2022/12/06 18:29:23;;;;;;;6.50;5.85;;;;;;;6.79;70.21;100280.06;10301212;28;20208;-62
2022/12/06 18:34:24;;;;;;;6.28;5.40;;;;;;;6.85;70.15;100284.97;10302802;28;20042;-60
2022/12/06 18:39:26;;;;;;;9.65;7.60;;;;;;;6.80;69.97;100264.09;10306616;28;20085;-61
2022/12/06 18:44:28;;;;;;;8.27;6.40;;;;;;;6.80;69.94;100284.38;10300540;28;20042;-61
2022/12/06 18:49:29;;;;;;;15.15;10.90;;;;;;;6.84;70.51;100276.16;10300686;28;20053;-61
2022/12/06 18:54:31;;;;;;;6.30;5.47;;;;;;;6.84;69.99;100285.91;10298268;28;20132;-61
2022/12/06 18:59:36;;;;;;;7.25;6.50;;;;;;;6.85;69.75;100287.59;10300331;28;20124;-60
2022/12/06 19:04:37;;;;;;;8.15;6.75;;;;;;;6.69;69.92;100280.63;10300371;28;20060;-61
2022/12/06 19:09:39;;;;;;;6.88;5.90;;;;;;;6.76;70.06;100280.25;10301601;28;20069;-60
2022/12/06 19:14:41;;;;;;;9.05;7.35;;;;;;;6.53;69.46;100250.81;10302000;28;20155;-60
2022/12/06 19:19:44;;;;;;;8.05;7.00;;;;;;;6.85;69.01;100292.91;10300970;28;20042;-61
2022/12/06 19:24:46;;;;;;;7.53;6.50;;;;;;;6.71;68.95;100275.22;10301359;28;20064;-60
2022/12/06 19:29:47;;;;;;;7.15;6.30;;;;;;;6.72;68.74;100288.41;10300487;28;20176;-60
2022/12/06 19:34:49;;;;;;;9.05;6.18;;;;;;;6.41;68.32;100285.97;10298712;28;20432;-60
2022/12/06 19:39:51;;;;;;;8.80;6.35;;;;;;;6.38;69.87;100294.97;10298016;28;20095;-60
2022/12/06 19:44:52;;;;;;;8.73;6.35;;;;;;;6.24;68.73;100266.72;10300668;28;20077;-60
2022/12/06 19:49:54;;;;;;;8.68;6.68;;;;;;;6.50;68.28;100303.91;10297835;28;20054;-60
2022/12/06 19:54:55;;;;;;;7.72;6.93;;;;;;;6.45;68.53;100282.19;10299410;28;20522;-59
2022/12/06 19:59:57;;;;;;;7.88;6.40;;;;;;;6.61;67.95;100306.72;10299200;28;20413;-59
2022/12/06 20:04:59;;;;;;;8.77;7.57;;;;;;;6.47;67.93;100288.22;10300453;28;20050;-62
2022/12/06 20:10:00;;;;;;;8.30;7.38;;;;;;;6.58;67.33;100309.56;10300952;28;20054;-60
2022/12/06 20:15:02;;;;;;;8.65;7.03;;;;;;;6.21;68.21;100309.19;10299569;28;20046;-61
2022/12/06 20:20:05;;;;;;;9.27;7.22;;;;;;;5.87;67.73;100316.53;10300895;28;20061;-61
2022/12/06 20:25:06;;;;;;;7.90;7.18;;;;;;;5.83;69.10;100304.44;10301603;28;20503;-62
2022/12/06 20:30:08;;;;;;;9.02;8.18;;;;;;;6.03;67.62;100294.47;10295167;28;22233;-61
2022/12/06 20:35:10;;;;;;;10.13;8.30;;;;;;;5.79;67.44;100258.84;10299225;28;20054;-61
2022/12/06 20:40:12;;;;;;;10.43;8.80;;;;;;;5.94;67.73;100286.13;10297615;28;20132;-61
2022/12/06 20:45:13;;;;;;;11.90;10.55;;;;;;;5.92;68.05;100264.25;10300762;28;20593;-62
2022/12/06 20:50:15;;;;;;;13.90;11.45;;;;;;;6.08;68.27;100284.47;10299840;28;20064;-61
2022/12/06 20:55:16;;;;;;;12.43;10.40;;;;;;;5.69;68.80;100249.78;10296622;28;20456;-62
2022/12/06 21:00:18;;;;;;;11.73;8.95;;;;;;;5.83;69.23;100284.13;10298133;28;20448;-61
2022/12/06 21:05:20;;;;;;;12.57;10.40;;;;;;;5.78;70.36;100290.63;10300008;28;20064;-61
2022/12/06 21:10:21;;;;;;;15.13;13.52;;;;;;;5.85;70.57;100286.69;10296900;28;20894;-60
2022/12/06 21:15:23;;;;;;;17.40;13.65;;;;;;;5.62;70.67;100259.84;10307493;28;20064;-62
2022/12/06 21:20:24;;;;;;;22.25;18.02;;;;;;;5.66;71.40;100281.66;10302690;28;20069;-63
2022/12/06 21:25:25;;;;;;;16.35;12.05;;;;;;;5.61;71.68;100274.00;10306386;28;20386;-60
2022/12/06 21:30:27;;;;;;;13.20;11.32;;;;;;;5.78;71.59;100282.69;10305469;28;20057;-61
2022/12/06 21:35:28;;;;;;;14.27;11.25;;;;;;;5.84;71.39;100280.56;10309790;28;20283;-60
2022/12/06 21:40:31;;;;;;;12.52;10.75;;;;;;;6.00;71.12;100274.38;10309532;28;20400;-61
2022/12/06 21:45:34;;;;;;;12.73;10.70;;;;;;;5.81;70.71;100234.97;10302277;28;20526;-61
2022/12/06 21:50:35;;;;;;;12.30;10.07;;;;;;;6.16;71.21;100267.19;10305256;28;20054;-62
2022/12/06 21:55:37;;;;;;;14.13;11.35;;;;;;;6.12;70.47;100267.47;10311758;28;20053;-61
2022/12/06 22:00:39;;;;;;;13.85;12.35;;;;;;;5.95;70.84;100293.13;10303389;28;20048;-60
2022/12/06 22:05:40;;;;;;;12.07;10.70;;;;;;;6.05;70.95;100284.66;10308990;28;20064;-61
2022/12/06 22:10:42;;;;;;;12.13;10.70;;;;;;;6.03;70.84;100279.47;10308191;28;20101;-59
2022/12/06 22:15:43;;;;;;;11.40;9.38;;;;;;;6.11;70.48;100286.91;10308274;28;20514;-59
2022/12/06 22:20:55;;;;;;;11.00;9.43;;;;;;;6.05;70.96;100282.00;10304649;28;20053;-62
2022/12/06 22:25:57;;;;;;;11.43;10.20;;;;;;;6.06;70.93;100289.00;10301592;28;20046;-61
2022/12/06 22:31:10;;;;;;;11.75;10.55;;;;;;;5.94;70.74;100275.56;10301456;28;20096;-61
2022/12/06 22:36:13;;;;;;;11.80;10.60;;;;;;;6.02;71.14;100296.28;10312531;28;20057;-61
2022/12/06 22:41:14;;;;;;;10.98;9.50;;;;;;;5.90;70.84;100263.50;10310943;28;20377;-61
2022/12/06 22:46:16;;;;;;;12.55;10.25;;;;;;;5.97;71.07;100274.56;10307916;28;20141;-61
2022/12/06 22:51:20;;;;;;;10.82;9.73;;;;;;;6.14;70.82;100286.72;10314527;28;20133;-61
2022/12/06 22:56:22;;;;;;;13.77;10.57;;;;;;;6.11;70.95;100286.91;10310117;28;20046;-61
2022/12/06 23:01:26;;;;;;;11.52;9.85;;;;;;;6.07;70.31;100280.97;10313183;28;20056;-61
2022/12/06 23:06:28;;;;;;;10.47;9.23;;;;;;;6.16;70.53;100295.44;10312879;28;20050;-61
2022/12/06 23:11:32;;;;;;;11.52;10.20;;;;;;;5.92;70.24;100276.59;10309402;28;20264;-61
2022/12/06 23:16:34;;;;;;;11.60;10.18;;;;;;;6.03;71.44;100286.56;10315678;28;20354;-61
2022/12/06 23:21:37;;;;;;;10.90;9.80;;;;;;;6.03;71.16;100294.47;10309395;28;20543;-62
2022/12/06 23:26:45;;;;;;;11.63;10.38;;;;;;;5.98;71.89;100290.31;10306487;28;20057;-61
2022/12/06 23:31:47;;;;;;;11.77;10.15;;;;;;;5.89;71.79;100282.09;10304283;28;20045;-60
2022/12/06 23:36:49;;;;;;;12.35;10.38;;;;;;;5.96;72.21;100284.25;10304106;28;20093;-61
2022/12/06 23:41:50;;;;;;;12.18;10.82;;;;;;;5.98;71.60;100282.38;10305718;28;20403;-61
2022/12/06 23:46:52;;;;;;;11.95;9.73;;;;;;;6.07;71.72;100269.56;10310491;28;20056;-60
2022/12/06 23:51:53;;;;;;;13.38;11.40;;;;;;;6.01;71.77;100255.78;10304104;28;20557;-61
2022/12/06 23:56:54;;;;;;;11.40;10.20;;;;;;;5.98;72.01;100263.91;10306029;28;20050;-58
